Time;durP1;ratioP1;P1;durP2;ratioP2;P2;SDS_P1;SDS_P2;PMS_P1;PMS_P2;Temp;Humidity;BMP_temperature;BMP_pressure;BME280_temperature;BME280_humidity;BME280_pressure;Samples;Min_cycle;Max_cycle;Signal;HPM_P1;HPM_P2
2021/03/23 00:01:10;;;;;;;15.90;5.63;;;;;;;;;;5055717;28;20063;-84
2021/03/23 00:03:38;;;;;;;18.23;6.60;;;;;;;;;;5049879;28;20461;-85
2021/03/23 00:06:07;;;;;;;19.00;7.00;;;;;;;;;;5048399;28;20057;-83
2021/03/23 00:08:35;;;;;;;17.92;6.72;;;;;;;;;;5050665;28;20057;-83
2021/03/23 00:11:06;;;;;;;15.45;6.13;;;;;;;;;;5052567;28;20133;-84
2021/03/23 00:13:33;;;;;;;17.85;7.15;;;;;;;;;;5051773;28;20434;-84
2021/03/23 00:16:01;;;;;;;18.08;7.25;;;;;;;;;;5051109;28;20049;-84
2021/03/23 00:18:28;;;;;;;20.33;6.97;;;;;;;;;;5048747;28;20049;-84
2021/03/23 00:20:56;;;;;;;14.98;6.55;;;;;;;;;;5050699;28;20041;-84
2021/03/23 00:23:23;;;;;;;15.32;6.28;;;;;;;;;;5049884;28;20488;-84
2021/03/23 00:25:51;;;;;;;17.50;7.50;;;;;;;;;;5050838;28;20049;-83
2021/03/23 00:28:21;;;;;;;16.80;7.43;;;;;;;;;;5049566;28;20094;-83
2021/03/23 00:30:48;;;;;;;19.83;8.70;;;;;;;;;;5050746;28;20080;-84
2021/03/23 00:33:15;;;;;;;17.58;7.28;;;;;;;;;;5050968;28;20133;-84
2021/03/23 00:35:43;;;;;;;18.70;7.20;;;;;;;;;;5050203;28;20478;-83
2021/03/23 00:38:11;;;;;;;16.38;7.13;;;;;;;;;;5050046;28;20584;-84
2021/03/23 00:40:39;;;;;;;16.67;7.07;;;;;;;;;;5046246;28;20045;-83
2021/03/23 00:43:07;;;;;;;13.45;6.50;;;;;;;;;;5050814;28;20190;-84
2021/03/23 00:45:38;;;;;;;15.77;7.10;;;;;;;;;;5050693;28;20045;-84
2021/03/23 00:48:06;;;;;;;16.58;6.85;;;;;;;;;;5049867;28;20075;-82
2021/03/23 00:50:33;;;;;;;14.82;6.57;;;;;;;;;;5037272;28;20136;-82
2021/03/23 00:53:01;;;;;;;20.38;7.07;;;;;;;;;;5050592;28;20532;-83
2021/03/23 00:55:28;;;;;;;15.73;6.90;;;;;;;;;;5050056;28;20048;-84
2021/03/23 00:57:55;;;;;;;13.05;6.95;;;;;;;;;;5050147;28;20156;-83
2021/03/23 01:00:23;;;;;;;18.80;7.15;;;;;;;;;;5046899;28;20049;-83
2021/03/23 01:02:52;;;;;;;20.10;7.57;;;;;;;;;;5049646;28;20487;-83
2021/03/23 01:05:21;;;;;;;18.27;7.50;;;;;;;;;;5051317;28;20068;-83
2021/03/23 01:07:48;;;;;;;18.92;8.07;;;;;;;;;;5046985;28;20105;-83
2021/03/23 01:10:17;;;;;;;17.75;6.90;;;;;;;;;;5052651;28;20041;-83
2021/03/23 01:12:45;;;;;;;17.77;7.13;;;;;;;;;;5056784;28;20583;-83
2021/03/23 01:15:13;;;;;;;15.90;7.07;;;;;;;;;;5057355;28;20064;-83
2021/03/23 01:17:41;;;;;;;19.15;7.85;;;;;;;;;;5065093;28;20052;-82
2021/03/23 01:20:11;;;;;;;19.17;7.30;;;;;;;;;;5069286;28;20110;-84
2021/03/23 01:22:38;;;;;;;20.90;7.95;;;;;;;;;;5060804;28;20045;-83
2021/03/23 01:25:06;;;;;;;19.67;8.10;;;;;;;;;;5055805;28;20133;-83
2021/03/23 01:27:34;;;;;;;13.38;7.65;;;;;;;;;;5049633;28;20053;-83
2021/03/23 01:30:01;;;;;;;20.25;7.85;;;;;;;;;;5046909;28;20083;-83
2021/03/23 01:32:29;;;;;;;18.15;9.27;;;;;;;;;;5049758;28;20118;-83
2021/03/23 01:34:56;;;;;;;25.70;7.65;;;;;;;;;;5049308;28;20044;-83
2021/03/23 01:37:24;;;;;;;20.67;8.32;;;;;;;;;;5050032;28;20076;-83
2021/03/23 01:39:52;;;;;;;22.80;8.55;;;;;;;;;;5046590;28;20098;-82
2021/03/23 01:42:20;;;;;;;20.73;8.27;;;;;;;;;;5049926;28;20128;-83
2021/03/23 01:45:07;;;;;;;17.98;8.20;;;;;;;;;;5049456;28;20142;-83
2021/03/23 01:47:34;;;;;;;20.67;8.13;;;;;;;;;;5041432;28;20568;-83
2021/03/23 01:50:02;;;;;;;20.25;8.23;;;;;;;;;;5048987;28;20064;-82
2021/03/23 01:52:30;;;;;;;20.92;7.32;;;;;;;;;;5049070;28;20520;-83
2021/03/23 01:55:00;;;;;;;21.45;8.18;;;;;;;;;;5049396;28;20063;-82
2021/03/23 01:57:28;;;;;;;20.75;8.43;;;;;;;;;;5049329;28;20041;-83
2021/03/23 01:59:57;;;;;;;24.33;8.32;;;;;;;;;;5045261;28;20053;-83
2021/03/23 02:02:26;;;;;;;20.88;8.55;;;;;;;;;;5044463;28;20119;-83
2021/03/23 02:05:06;;;;;;;19.63;8.05;;;;;;;;;;5063844;22;20481;-86
2021/03/23 02:07:35;;;;;;;17.50;8.50;;;;;;;;;;5053711;28;20053;-86
2021/03/23 02:10:03;;;;;;;22.15;8.73;;;;;;;;;;5054357;28;20053;-86
2021/03/23 02:12:31;;;;;;;26.13;9.00;;;;;;;;;;5055294;28;20084;-89
2021/03/23 02:14:59;;;;;;;23.95;8.80;;;;;;;;;;5055193;28;20057;-89
2021/03/23 02:17:28;;;;;;;21.80;8.82;;;;;;;;;;5055885;28;20042;-90
2021/03/23 02:19:57;;;;;;;18.27;7.88;;;;;;;;;;5054596;28;20123;-89
2021/03/23 02:22:28;;;;;;;18.85;8.55;;;;;;;;;;5053992;28;20049;-89
2021/03/23 02:24:58;;;;;;;19.58;8.00;;;;;;;;;;5053760;28;20045;-89
2021/03/23 02:27:27;;;;;;;19.95;8.35;;;;;;;;;;5054424;28;20049;-89
2021/03/23 02:29:56;;;;;;;25.73;9.20;;;;;;;;;;5053707;28;20045;-88
2021/03/23 02:32:23;;;;;;;23.13;8.55;;;;;;;;;;5053596;28;20049;-89
2021/03/23 02:34:51;;;;;;;18.58;9.25;;;;;;;;;;5054677;28;20053;-88
2021/03/23 02:37:18;;;;;;;18.52;8.25;;;;;;;;;;5056492;28;20049;-89
2021/03/23 02:39:47;;;;;;;25.83;9.13;;;;;;;;;;5055900;28;20520;-89
2021/03/23 02:42:15;;;;;;;18.00;8.73;;;;;;;;;;5053777;28;20139;-89
2021/03/23 02:44:45;;;;;;;18.25;8.27;;;;;;;;;;5053411;28;20076;-89
2021/03/23 02:47:13;;;;;;;20.35;8.27;;;;;;;;;;5053982;28;20045;-89
2021/03/23 02:49:40;;;;;;;20.80;8.77;;;;;;;;;;5053816;28;20472;-86
2021/03/23 02:52:08;;;;;;;21.13;10.15;;;;;;;;;;5053646;28;20110;-87
2021/03/23 02:54:35;;;;;;;20.33;9.07;;;;;;;;;;5053903;28;20072;-87
2021/03/23 02:57:04;;;;;;;25.23;10.10;;;;;;;;;;5053998;28;20055;-87
2021/03/23 02:59:31;;;;;;;21.30;9.20;;;;;;;;;;5056675;28;20077;-86
2021/03/23 03:01:59;;;;;;;22.30;8.88;;;;;;;;;;5057562;28;20099;-87
2021/03/23 03:04:26;;;;;;;27.52;9.60;;;;;;;;;;5054646;28;20100;-87
2021/03/23 03:06:54;;;;;;;25.60;9.73;;;;;;;;;;5054055;28;20139;-87
2021/03/23 03:09:21;;;;;;;25.52;9.15;;;;;;;;;;5046335;28;20076;-87
2021/03/23 03:11:50;;;;;;;19.98;9.38;;;;;;;;;;5051657;28;20433;-86
2021/03/23 03:14:19;;;;;;;27.20;9.93;;;;;;;;;;5057026;28;20072;-87
2021/03/23 03:16:46;;;;;;;23.00;9.63;;;;;;;;;;5051876;28;20140;-87
2021/03/23 03:19:14;;;;;;;22.92;10.07;;;;;;;;;;5052256;28;20086;-87
2021/03/23 03:21:42;;;;;;;28.23;10.20;;;;;;;;;;5052561;28;20424;-87
2021/03/23 03:24:09;;;;;;;24.33;9.48;;;;;;;;;;5060967;28;20044;-87
2021/03/23 03:26:37;;;;;;;23.55;9.82;;;;;;;;;;5053148;28;20098;-86
2021/03/23 03:29:07;;;;;;;22.63;8.88;;;;;;;;;;5053289;28;20148;-87
2021/03/23 03:31:35;;;;;;;25.52;10.48;;;;;;;;;;5052302;28;20080;-87
2021/03/23 03:34:03;;;;;;;21.50;9.32;;;;;;;;;;5051599;28;20045;-87
2021/03/23 03:36:32;;;;;;;25.52;9.52;;;;;;;;;;5052167;28;20076;-86
2021/03/23 03:38:59;;;;;;;26.40;9.98;;;;;;;;;;5053296;28;20140;-87
2021/03/23 03:41:27;;;;;;;29.13;10.18;;;;;;;;;;5053396;28;20045;-87
2021/03/23 03:43:55;;;;;;;27.23;10.95;;;;;;;;;;5052049;28;20430;-86
2021/03/23 03:46:23;;;;;;;24.60;10.10;;;;;;;;;;5055290;28;20048;-86
2021/03/23 03:48:51;;;;;;;25.48;10.80;;;;;;;;;;5063278;28;20057;-86
2021/03/23 03:51:19;;;;;;;27.73;10.77;;;;;;;;;;5062460;28;20037;-87
2021/03/23 03:53:47;;;;;;;29.85;11.25;;;;;;;;;;5058905;28;20131;-88
2021/03/23 03:56:14;;;;;;;24.70;11.00;;;;;;;;;;5053594;28;20132;-88
2021/03/23 03:58:41;;;;;;;29.15;10.05;;;;;;;;;;5052900;28;20143;-89
2021/03/23 04:01:09;;;;;;;24.60;10.13;;;;;;;;;;5066364;28;20075;-88
2021/03/23 04:03:37;;;;;;;28.55;10.55;;;;;;;;;;4937575;28;21108;-88
2021/03/23 04:06:05;;;;;;;25.35;11.55;;;;;;;;;;344599;28;10022860;-88
2021/03/23 04:08:33;;;;;;;29.88;10.77;;;;;;;;;;5029867;28;20132;-88
2021/03/23 04:11:02;;;;;;;25.20;10.43;;;;;;;;;;5030675;28;20504;-88
2021/03/23 04:13:30;;;;;;;27.83;11.23;;;;;;;;;;5026416;28;20513;-89
2021/03/23 04:15:57;;;;;;;27.13;10.05;;;;;;;;;;5034639;28;20462;-89
2021/03/23 04:18:26;;;;;;;30.27;12.32;;;;;;;;;;5042034;28;20152;-87
2021/03/23 04:20:54;;;;;;;27.48;11.32;;;;;;;;;;5052061;28;20075;-88
2021/03/23 04:23:24;;;;;;;26.25;11.63;;;;;;;;;;5046621;28;20079;-88
2021/03/23 04:25:52;;;;;;;26.50;10.80;;;;;;;;;;5052382;28;20466;-88
2021/03/23 04:28:19;;;;;;;27.83;10.82;;;;;;;;;;5054042;28;20041;-89
2021/03/23 04:30:47;;;;;;;30.17;11.18;;;;;;;;;;5053501;28;20584;-88
2021/03/23 04:33:15;;;;;;;26.63;10.27;;;;;;;;;;5054249;28;20148;-89
2021/03/23 04:35:45;;;;;;;29.05;10.57;;;;;;;;;;5053508;28;20044;-88
2021/03/23 04:38:13;;;;;;;26.02;11.02;;;;;;;;;;5054487;28;20056;-88
2021/03/23 04:40:42;;;;;;;23.70;10.48;;;;;;;;;;5052307;28;20045;-88
2021/03/23 04:43:09;;;;;;;30.10;12.43;;;;;;;;;;5048611;28;20096;-88
2021/03/23 04:45:37;;;;;;;28.90;12.40;;;;;;;;;;5050356;28;20148;-88
2021/03/23 04:48:05;;;;;;;35.30;11.43;;;;;;;;;;5051305;28;20067;-88
2021/03/23 04:50:32;;;;;;;30.05;11.65;;;;;;;;;;5049490;28;20396;-89
2021/03/23 04:53:00;;;;;;;28.27;12.55;;;;;;;;;;5051410;28;20102;-88
2021/03/23 04:55:27;;;;;;;30.05;12.68;;;;;;;;;;5050436;28;20079;-89
2021/03/23 04:57:56;;;;;;;31.13;11.15;;;;;;;;;;5050857;28;20562;-89
2021/03/23 05:00:23;;;;;;;32.95;12.88;;;;;;;;;;5047817;28;20037;-89
2021/03/23 05:02:50;;;;;;;27.88;11.18;;;;;;;;;;5053549;28;20052;-88
2021/03/23 05:05:18;;;;;;;27.50;11.00;;;;;;;;;;5050852;28;20057;-90
2021/03/23 05:07:45;;;;;;;28.52;11.30;;;;;;;;;;5051239;28;20079;-89
2021/03/23 05:10:13;;;;;;;28.95;11.38;;;;;;;;;;5049601;28;20045;-88
2021/03/23 05:12:41;;;;;;;27.35;11.30;;;;;;;;;;5050442;28;20587;-88
2021/03/23 05:15:10;;;;;;;28.38;10.88;;;;;;;;;;5048049;28;20049;-89
2021/03/23 05:17:38;;;;;;;23.50;11.00;;;;;;;;;;5050541;28;20428;-89
2021/03/23 05:20:06;;;;;;;30.90;11.00;;;;;;;;;;5051060;28;20045;-89
2021/03/23 05:22:34;;;;;;;32.10;12.57;;;;;;;;;;5058971;28;20078;-89
2021/03/23 05:25:02;;;;;;;27.20;11.57;;;;;;;;;;5060139;28;20049;-89
2021/03/23 05:27:30;;;;;;;30.38;12.18;;;;;;;;;;5060157;28;20118;-89
2021/03/23 05:29:57;;;;;;;33.10;11.98;;;;;;;;;;5053290;28;20052;-88
2021/03/23 05:32:25;;;;;;;35.55;12.65;;;;;;;;;;5053774;28;20044;-88
2021/03/23 05:34:53;;;;;;;32.78;12.30;;;;;;;;;;5059515;28;20045;-89
2021/03/23 05:37:20;;;;;;;27.25;11.45;;;;;;;;;;5060173;28;20543;-88
2021/03/23 05:39:48;;;;;;;29.02;11.85;;;;;;;;;;5063095;28;20053;-89
2021/03/23 05:42:22;;;;;;;31.75;12.40;;;;;;;;;;5057823;28;20079;-89
2021/03/23 05:44:55;;;;;;;32.03;12.57;;;;;;;;;;5060919;28;20044;-89
2021/03/23 05:47:28;;;;;;;31.35;11.68;;;;;;;;;;5058052;28;20075;-89
2021/03/23 05:49:58;;;;;;;30.48;12.23;;;;;;;;;;5068494;28;20071;-90
2021/03/23 05:52:27;;;;;;;32.80;12.27;;;;;;;;;;5061801;28;20065;-89
2021/03/23 05:54:57;;;;;;;26.65;11.77;;;;;;;;;;5055348;28;20132;-89
2021/03/23 05:57:30;;;;;;;37.35;13.57;;;;;;;;;;5057868;28;20041;-89
2021/03/23 05:59:58;;;;;;;33.55;13.00;;;;;;;;;;5061031;28;20057;-91
2021/03/23 06:02:32;;;;;;;31.30;13.07;;;;;;;;;;5049286;28;20523;-90
2021/03/23 06:05:08;;;;;;;29.52;13.63;;;;;;;;;;5053374;28;20056;-91
2021/03/23 06:07:38;;;;;;;37.83;13.73;;;;;;;;;;5053075;28;20041;-90
2021/03/23 06:10:15;;;;;;;34.33;12.65;;;;;;;;;;5053919;28;20041;-90
2021/03/23 06:12:46;;;;;;;31.13;12.90;;;;;;;;;;5051638;28;20499;-90
2021/03/23 06:15:19;;;;;;;34.90;14.32;;;;;;;;;;5048307;28;20048;-91
2021/03/23 06:17:52;;;;;;;40.83;15.40;;;;;;;;;;5045193;28;20120;-90
2021/03/23 06:20:32;;;;;;;34.47;13.93;;;;;;;;;;5044794;28;20517;-90
2021/03/23 06:23:13;;;;;;;33.28;13.35;;;;;;;;;;5053877;28;20067;-90
2021/03/23 06:25:43;;;;;;;35.85;13.82;;;;;;;;;;5050118;28;20108;-89
2021/03/23 06:28:22;;;;;;;39.20;14.25;;;;;;;;;;5050890;28;20544;-92
2021/03/23 06:30:52;;;;;;;33.97;13.57;;;;;;;;;;5054161;28;20122;-90
2021/03/23 06:33:22;;;;;;;42.50;15.95;;;;;;;;;;5049230;28;20135;-91
2021/03/23 06:35:55;;;;;;;33.30;13.52;;;;;;;;;;5051035;28;20045;-92
2021/03/23 06:38:35;;;;;;;31.30;13.05;;;;;;;;;;5053957;28;20048;-92
2021/03/23 06:41:20;;;;;;;36.28;13.80;;;;;;;;;;5054856;28;20045;-91
2021/03/23 06:43:49;;;;;;;36.45;12.93;;;;;;;;;;5053695;28;20049;-91
2021/03/23 06:46:28;;;;;;;30.88;13.45;;;;;;;;;;5053529;28;20118;-92
2021/03/23 06:49:06;;;;;;;30.20;11.68;;;;;;;;;;5053386;28;20045;-91
2021/03/23 06:51:34;;;;;;;33.83;13.32;;;;;;;;;;5053523;28;20432;-91
2021/03/23 06:54:13;;;;;;;38.05;13.77;;;;;;;;;;5054008;28;20142;-91
2021/03/23 06:56:40;;;;;;;38.13;15.18;;;;;;;;;;5052996;28;20459;-91
2021/03/23 06:59:18;;;;;;;34.95;13.70;;;;;;;;;;5046778;28;20455;-92
2021/03/23 07:01:47;;;;;;;39.40;13.80;;;;;;;;;;5034916;28;20057;-91
2021/03/23 07:04:21;;;;;;;33.40;13.60;;;;;;;;;;5051102;28;20056;-92
2021/03/23 07:07:02;;;;;;;33.72;12.10;;;;;;;;;;5053581;28;20475;-90
2021/03/23 07:09:33;;;;;;;30.27;12.45;;;;;;;;;;5053240;28;20160;-90
2021/03/23 07:12:06;;;;;;;39.92;14.25;;;;;;;;;;5044479;28;20428;-91
2021/03/23 07:14:42;;;;;;;34.50;13.52;;;;;;;;;;5060512;28;20083;-91
2021/03/23 07:17:21;;;;;;;30.45;12.65;;;;;;;;;;5059613;28;20048;-91
2021/03/23 07:20:00;;;;;;;35.75;14.27;;;;;;;;;;5056845;28;20053;-92
2021/03/23 07:22:33;;;;;;;32.28;12.98;;;;;;;;;;5049875;28;20060;-91
2021/03/23 07:25:04;;;;;;;30.92;13.35;;;;;;;;;;5050815;28;20060;-90
2021/03/23 07:27:33;;;;;;;29.90;11.40;;;;;;;;;;5042446;28;20057;-88
2021/03/23 07:30:31;;;;;;;33.38;12.55;;;;;;;;;;5051897;28;20126;-90
2021/03/23 07:33:02;;;;;;;31.45;12.43;;;;;;;;;;4967063;28;20050;-90
2021/03/23 07:35:35;;;;;;;36.80;13.38;;;;;;;;;;5027826;28;20049;-89
2021/03/23 07:38:11;;;;;;;37.80;14.10;;;;;;;;;;5050303;28;20048;-90
2021/03/23 07:40:40;;;;;;;37.90;13.20;;;;;;;;;;5051559;28;20500;-90
2021/03/23 07:43:18;;;;;;;37.13;12.32;;;;;;;;;;5052426;28;20052;-90
2021/03/23 07:45:51;;;;;;;30.30;12.48;;;;;;;;;;5048437;28;20128;-90
2021/03/23 07:48:22;;;;;;;31.27;14.00;;;;;;;;;;5051465;28;20041;-90
2021/03/23 07:50:55;;;;;;;27.73;12.65;;;;;;;;;;5049306;28;20055;-90
2021/03/23 07:53:26;;;;;;;33.08;14.32;;;;;;;;;;5038304;28;20133;-89
2021/03/23 07:55:58;;;;;;;42.17;14.20;;;;;;;;;;5041844;28;20049;-90
2021/03/23 07:58:32;;;;;;;36.63;14.38;;;;;;;;;;5051050;28;20056;-89
2021/03/23 08:01:17;;;;;;;34.38;13.40;;;;;;;;;;5051987;28;20075;-90
2021/03/23 08:03:54;;;;;;;35.42;12.57;;;;;;;;;;5049974;28;20063;-89
2021/03/23 08:06:26;;;;;;;35.45;14.52;;;;;;;;;;5057988;28;20074;-91
2021/03/23 08:09:12;;;;;;;31.05;13.77;;;;;;;;;;5050287;28;20045;-90
2021/03/23 08:11:46;;;;;;;31.77;12.07;;;;;;;;;;5047239;28;20072;-89
2021/03/23 08:14:23;;;;;;;31.20;14.25;;;;;;;;;;5052432;28;20468;-90
2021/03/23 08:16:59;;;;;;;35.90;14.05;;;;;;;;;;5049776;28;20047;-90
2021/03/23 08:19:40;;;;;;;31.35;13.50;;;;;;;;;;5051671;28;20053;-90
2021/03/23 08:22:15;;;;;;;28.73;12.30;;;;;;;;;;5047078;28;20107;-89
2021/03/23 08:24:49;;;;;;;33.85;13.20;;;;;;;;;;5031607;28;20063;-89
2021/03/23 08:27:31;;;;;;;30.70;13.05;;;;;;;;;;5045202;28;20049;-90
2021/03/23 08:30:05;;;;;;;33.10;12.77;;;;;;;;;;5050350;28;20475;-90
2021/03/23 08:32:38;;;;;;;30.75;13.40;;;;;;;;;;5048391;28;20049;-90
2021/03/23 08:35:21;;;;;;;33.55;13.07;;;;;;;;;;5048443;28;20113;-90
2021/03/23 08:38:00;;;;;;;35.40;13.68;;;;;;;;;;5049959;28;20041;-90
2021/03/23 08:40:30;;;;;;;29.27;12.15;;;;;;;;;;5050885;28;20053;-90
2021/03/23 08:42:58;;;;;;;28.45;12.18;;;;;;;;;;5051103;28;20047;-90
2021/03/23 08:45:28;;;;;;;28.48;11.90;;;;;;;;;;5050618;28;20136;-91
2021/03/23 08:48:01;;;;;;;26.58;11.93;;;;;;;;;;5050071;28;20041;-90
2021/03/23 08:50:32;;;;;;;32.75;12.30;;;;;;;;;;5046621;28;20047;-90
2021/03/23 08:53:04;;;;;;;33.75;11.80;;;;;;;;;;5050915;28;20041;-91
2021/03/23 08:55:47;;;;;;;26.08;11.18;;;;;;;;;;5050720;28;20049;-90
2021/03/23 08:58:18;;;;;;;23.25;9.88;;;;;;;;;;5048506;28;20531;-90
2021/03/23 09:00:59;;;;;;;30.58;10.05;;;;;;;;;;5052079;28;20045;-91
2021/03/23 09:03:47;;;;;;;21.15;9.75;;;;;;;;;;5051346;28;20061;-90
2021/03/23 09:06:17;;;;;;;18.63;7.50;;;;;;;;;;5052606;28;20140;-90
2021/03/23 09:08:50;;;;;;;25.33;9.95;;;;;;;;;;5038857;28;20535;-90
2021/03/23 09:11:39;;;;;;;25.65;10.50;;;;;;;;;;5050878;28;20049;-90
2021/03/23 09:14:27;;;;;;;27.05;9.10;;;;;;;;;;5047832;28;20102;-89
2021/03/23 09:16:54;;;;;;;;;;;;;;;;;;5050821;28;20135;-90
2021/03/23 09:19:34;;;;;;;26.50;9.40;;;;;;;;;;5050492;28;19927;-90
2021/03/23 09:22:26;;;;;;;22.83;8.75;;;;;;;;;;5054623;28;20045;-91
2021/03/23 09:25:10;;;;;;;26.55;9.55;;;;;;;;;;5066479;28;20089;-91
2021/03/23 09:27:59;;;;;;;22.02;9.55;;;;;;;;;;5050836;28;20115;-90
2021/03/23 09:30:51;;;;;;;24.20;10.13;;;;;;;;;;5045688;28;20060;-90
2021/03/23 09:33:39;;;;;;;24.77;9.38;;;;;;;;;;5051520;28;20113;-90
2021/03/23 09:36:42;;;;;;;25.85;8.82;;;;;;;;;;5053099;28;20083;-90
2021/03/23 09:39:33;;;;;;;21.67;9.27;;;;;;;;;;5049779;28;20134;-90
2021/03/23 09:42:19;;;;;;;17.27;9.10;;;;;;;;;;5047602;28;21189;-90
2021/03/23 09:44:58;;;;;;;21.20;9.18;;;;;;;;;;5049806;28;20048;-90
2021/03/23 09:47:46;;;;;;;23.13;9.25;;;;;;;;;;5049821;28;20056;-90
2021/03/23 09:50:28;;;;;;;26.33;9.30;;;;;;;;;;5017886;28;20052;-89
2021/03/23 09:53:04;;;;;;;19.88;8.60;;;;;;;;;;5049721;28;20424;-90
2021/03/23 09:55:36;;;;;;;17.65;7.60;;;;;;;;;;5042883;28;20052;-90
2021/03/23 09:58:05;;;;;;;13.00;6.32;;;;;;;;;;5051127;28;20047;-92
2021/03/23 10:00:34;;;;;;;19.20;7.53;;;;;;;;;;5053173;28;20056;-93
2021/03/23 10:03:18;;;;;;;15.43;7.30;;;;;;;;;;5056171;28;20120;-92
2021/03/23 10:06:03;;;;;;;21.58;9.10;;;;;;;;;;5055147;28;20053;-92
2021/03/23 10:08:36;;;;;;;26.73;10.25;;;;;;;;;;5053119;28;20060;-91
2021/03/23 10:11:16;;;;;;;19.02;9.18;;;;;;;;;;5058960;28;20111;-91
2021/03/23 10:13:49;;;;;;;26.65;9.32;;;;;;;;;;5057006;28;20132;-91
2021/03/23 10:16:29;;;;;;;15.45;7.85;;;;;;;;;;5060242;28;20557;-91
2021/03/23 10:19:04;;;;;;;22.33;8.55;;;;;;;;;;5057766;28;20048;-91
2021/03/23 10:21:34;;;;;;;21.65;8.18;;;;;;;;;;5057938;28;20526;-92
2021/03/23 10:24:04;;;;;;;20.80;8.05;;;;;;;;;;5058009;28;20057;-91
2021/03/23 10:26:36;;;;;;;18.33;6.70;;;;;;;;;;5057519;28;20057;-91
2021/03/23 10:29:26;;;;;;;16.60;6.90;;;;;;;;;;5058809;28;20128;-91
2021/03/23 10:31:57;;;;;;;13.50;6.45;;;;;;;;;;5059479;28;20428;-91
2021/03/23 10:34:28;;;;;;;16.63;6.28;;;;;;;;;;5054854;28;20041;-90
2021/03/23 10:36:58;;;;;;;15.10;5.75;;;;;;;;;;5057414;28;20481;-89
2021/03/23 10:39:31;;;;;;;12.15;5.75;;;;;;;;;;5063260;28;20056;-89
2021/03/23 10:42:14;;;;;;;15.18;6.32;;;;;;;;;;5044999;28;20388;-90
2021/03/23 10:44:42;;;;;;;16.73;6.65;;;;;;;;;;5053807;28;20080;-90
2021/03/23 10:47:15;;;;;;;18.13;7.75;;;;;;;;;;5056445;28;20525;-89
2021/03/23 10:49:43;;;;;;;18.42;7.43;;;;;;;;;;5046310;28;20468;-89
2021/03/23 10:52:26;;;;;;;16.23;7.47;;;;;;;;;;5052311;28;20052;-90
2021/03/23 10:55:08;;;;;;;13.50;5.60;;;;;;;;;;5059639;28;20045;-90
2021/03/23 10:57:38;;;;;;;10.95;4.78;;;;;;;;;;5046186;28;20051;-91
2021/03/23 11:00:23;;;;;;;15.52;5.10;;;;;;;;;;5054402;28;20151;-89
2021/03/23 11:02:52;;;;;;;11.98;6.60;;;;;;;;;;5050260;28;20049;-89
2021/03/23 11:05:22;;;;;;;15.13;6.97;;;;;;;;;;5053316;28;20065;-90
2021/03/23 11:07:59;;;;;;;16.30;6.75;;;;;;;;;;5039487;28;20463;-90
2021/03/23 11:10:28;;;;;;;14.88;6.53;;;;;;;;;;5053234;28;20091;-89
2021/03/23 11:12:56;;;;;;;13.43;6.18;;;;;;;;;;5053047;28;20412;-89
2021/03/23 11:15:25;;;;;;;21.60;7.20;;;;;;;;;;5054169;28;20178;-90
2021/03/23 11:17:59;;;;;;;15.48;7.05;;;;;;;;;;5051805;28;20071;-89
2021/03/23 11:20:29;;;;;;;18.00;8.67;;;;;;;;;;5047756;28;20416;-91
2021/03/23 11:22:57;;;;;;;23.48;9.38;;;;;;;;;;5051694;28;20122;-90
2021/03/23 11:25:27;;;;;;;24.45;7.95;;;;;;;;;;5052324;28;20052;-89
2021/03/23 11:27:56;;;;;;;16.42;6.45;;;;;;;;;;5051279;28;20512;-89
2021/03/23 11:30:25;;;;;;;15.90;7.60;;;;;;;;;;5047431;28;20053;-90
2021/03/23 11:32:54;;;;;;;21.48;8.77;;;;;;;;;;5049760;28;20416;-89
2021/03/23 11:35:23;;;;;;;20.70;8.15;;;;;;;;;;5046055;28;20548;-89
2021/03/23 11:37:51;;;;;;;21.13;9.10;;;;;;;;;;5050592;28;20393;-90
2021/03/23 11:40:19;;;;;;;24.52;10.00;;;;;;;;;;5050517;28;20045;-91
2021/03/23 11:42:49;;;;;;;19.55;8.88;;;;;;;;;;5049109;28;20052;-91
2021/03/23 11:45:22;;;;;;;27.42;10.38;;;;;;;;;;5048438;28;20110;-90
2021/03/23 11:47:55;;;;;;;21.60;9.60;;;;;;;;;;5049697;28;20161;-92
2021/03/23 11:50:26;;;;;;;18.33;7.90;;;;;;;;;;5042249;28;20057;-91
2021/03/23 11:52:54;;;;;;;20.42;8.55;;;;;;;;;;5051081;28;20462;-90
2021/03/23 11:55:24;;;;;;;14.88;6.78;;;;;;;;;;5046664;28;20049;-89
2021/03/23 11:57:52;;;;;;;12.05;5.53;;;;;;;;;;5036388;28;20553;-90
2021/03/23 12:00:22;;;;;;;14.00;7.40;;;;;;;;;;5053701;28;20044;-90
2021/03/23 12:02:50;;;;;;;14.80;7.05;;;;;;;;;;5050538;28;20111;-90
2021/03/23 12:05:18;;;;;;;15.20;6.68;;;;;;;;;;5050248;28;20063;-90
2021/03/23 12:07:56;;;;;;;13.43;6.65;;;;;;;;;;5049913;28;20084;-89
2021/03/23 12:10:26;;;;;;;14.77;6.40;;;;;;;;;;5043908;28;20049;-90
2021/03/23 12:12:58;;;;;;;16.65;6.68;;;;;;;;;;5041801;28;20040;-89
2021/03/23 12:15:32;;;;;;;17.70;6.05;;;;;;;;;;5042799;28;20060;-89
2021/03/23 12:18:02;;;;;;;17.98;7.45;;;;;;;;;;5041063;28;20064;-91
2021/03/23 12:20:32;;;;;;;18.83;7.72;;;;;;;;;;5047940;28;20044;-90
2021/03/23 12:23:02;;;;;;;20.23;7.30;;;;;;;;;;5042879;28;20079;-90
2021/03/23 12:25:30;;;;;;;15.88;6.78;;;;;;;;;;5047656;28;20124;-89
2021/03/23 12:27:59;;;;;;;15.20;7.35;;;;;;;;;;5051422;28;20438;-90
2021/03/23 12:30:27;;;;;;;17.05;7.75;;;;;;;;;;5048575;28;20091;-89
2021/03/23 12:32:56;;;;;;;17.55;8.18;;;;;;;;;;5040417;28;20049;-89
2021/03/23 12:35:26;;;;;;;20.98;8.00;;;;;;;;;;5045878;28;20142;-90
2021/03/23 12:37:57;;;;;;;17.90;8.90;;;;;;;;;;5045624;28;20057;-89
2021/03/23 12:40:27;;;;;;;18.70;7.40;;;;;;;;;;5045411;28;20123;-89
2021/03/23 12:43:02;;;;;;;14.05;6.40;;;;;;;;;;5047932;28;20389;-89
2021/03/23 12:45:32;;;;;;;18.85;6.30;;;;;;;;;;5050072;28;20519;-90
2021/03/23 12:48:00;;;;;;;15.45;7.30;;;;;;;;;;5048167;28;20052;-90
2021/03/23 12:50:29;;;;;;;15.48;7.03;;;;;;;;;;5040433;28;20150;-90
2021/03/23 12:52:58;;;;;;;15.32;7.68;;;;;;;;;;5041150;28;20045;-89
2021/03/23 12:55:29;;;;;;;14.10;6.70;;;;;;;;;;5046997;28;20044;-89
2021/03/23 12:57:59;;;;;;;17.95;7.88;;;;;;;;;;5039096;28;20055;-89
2021/03/23 13:00:28;;;;;;;17.17;7.13;;;;;;;;;;5042600;28;20064;-89
2021/03/23 13:02:57;;;;;;;15.07;5.88;;;;;;;;;;5045439;28;20447;-92
2021/03/23 13:05:25;;;;;;;15.30;7.38;;;;;;;;;;5039893;28;20419;-91
2021/03/23 13:07:55;;;;;;;18.08;7.43;;;;;;;;;;5035914;28;20053;-92
2021/03/23 13:10:32;;;;;;;20.70;7.95;;;;;;;;;;5047609;28;20098;-92
2021/03/23 13:13:01;;;;;;;23.02;8.98;;;;;;;;;;5055091;28;20053;-93
2021/03/23 13:15:32;;;;;;;18.60;8.00;;;;;;;;;;5049424;28;20377;-92
2021/03/23 13:18:00;;;;;;;18.52;9.20;;;;;;;;;;5046103;28;20076;-92
2021/03/23 13:20:30;;;;;;;22.60;10.38;;;;;;;;;;5047973;28;20056;-91
2021/03/23 13:23:01;;;;;;;23.17;10.45;;;;;;;;;;5049326;28;20056;-91
2021/03/23 13:25:31;;;;;;;23.80;9.98;;;;;;;;;;5048499;28;20057;-92
2021/03/23 13:28:01;;;;;;;21.58;9.88;;;;;;;;;;5043846;28;20053;-93
2021/03/23 13:30:33;;;;;;;28.10;9.50;;;;;;;;;;5046947;28;20598;-92
2021/03/23 13:33:04;;;;;;;21.38;10.18;;;;;;;;;;5041135;28;20052;-92
2021/03/23 13:35:33;;;;;;;18.98;8.73;;;;;;;;;;5048435;28;20136;-92
2021/03/23 13:38:12;;;;;;;24.65;9.35;;;;;;;;;;5047389;28;20402;-92
2021/03/23 13:40:44;;;;;;;21.00;9.70;;;;;;;;;;5032077;28;20060;-92
2021/03/23 13:43:16;;;;;;;19.23;8.63;;;;;;;;;;5045194;28;20047;-92
2021/03/23 13:45:46;;;;;;;22.30;9.23;;;;;;;;;;5041945;28;20040;-90
2021/03/23 13:48:18;;;;;;;20.38;8.27;;;;;;;;;;5045374;28;20053;-91
2021/03/23 13:50:47;;;;;;;20.63;8.52;;;;;;;;;;5044628;28;20092;-90
2021/03/23 13:53:18;;;;;;;18.33;7.80;;;;;;;;;;5046623;28;20044;-90
2021/03/23 13:55:47;;;;;;;19.48;8.27;;;;;;;;;;5045088;28;20056;-90
2021/03/23 13:58:16;;;;;;;14.98;7.57;;;;;;;;;;5045452;28;20122;-90
2021/03/23 14:00:45;;;;;;;17.60;8.75;;;;;;;;;;5041003;28;20114;-91
2021/03/23 14:03:14;;;;;;;17.63;7.93;;;;;;;;;;5046413;28;20110;-89
2021/03/23 14:05:43;;;;;;;17.85;9.63;;;;;;;;;;5048501;28;20064;-89
2021/03/23 14:08:14;;;;;;;16.58;7.78;;;;;;;;;;5045520;28;20143;-90
2021/03/23 14:10:45;;;;;;;22.67;8.25;;;;;;;;;;5062176;28;20048;-90
2021/03/23 14:13:13;;;;;;;21.45;7.18;;;;;;;;;;5050275;28;20146;-90
2021/03/23 14:15:41;;;;;;;13.48;6.32;;;;;;;;;;5046676;28;20135;-91
2021/03/23 14:18:10;;;;;;;13.18;6.38;;;;;;;;;;5045074;28;20143;-90
2021/03/23 14:20:39;;;;;;;13.73;6.35;;;;;;;;;;5046425;28;20126;-90
2021/03/23 14:23:11;;;;;;;14.40;5.88;;;;;;;;;;5057319;28;20049;-90
2021/03/23 14:25:43;;;;;;;13.75;6.13;;;;;;;;;;5043132;28;20142;-90
2021/03/23 14:28:18;;;;;;;10.38;5.93;;;;;;;;;;5056957;28;20125;-91
2021/03/23 14:30:47;;;;;;;11.30;5.90;;;;;;;;;;5052016;28;20064;-90
2021/03/23 14:33:14;;;;;;;18.00;8.13;;;;;;;;;;5048288;28;20048;-90
2021/03/23 14:35:42;;;;;;;14.10;6.60;;;;;;;;;;5049969;28;20056;-89
2021/03/23 14:38:16;;;;;;;13.80;6.93;;;;;;;;;;5047906;28;20460;-90
2021/03/23 14:40:47;;;;;;;14.68;7.13;;;;;;;;;;5051577;28;20053;-89
2021/03/23 14:43:16;;;;;;;17.75;7.07;;;;;;;;;;5054521;28;20049;-90
2021/03/23 14:45:44;;;;;;;14.30;7.07;;;;;;;;;;5047543;28;20574;-89
2021/03/23 14:48:14;;;;;;;15.85;7.85;;;;;;;;;;5051241;28;20049;-89
2021/03/23 14:50:43;;;;;;;16.40;7.20;;;;;;;;;;5054827;28;20053;-90